CSN6146 ZBAD-ZYCC
Flight info
| Callsign | CSN6146 |
|---|---|
| Flight time | 1h 33m |
| Altitude | 35100 |
| Route | DOTRA6K DOTRA B334 TGO G341 BUTET BUT72A |
| Aircraft | A320/M-SDE3FGHIRWY/LB1 |
Departure
| Time | 2026-04-26 08:30 |
|---|---|
| Airport | Beijing Daxing International Airport (ZBAD) |
Arrival
| Time | 2026-04-26 10:04 |
|---|---|
| Airport | Changchun Longjia International Airport (ZYCC) |
| Time | Latitude | Longitude | Altitude | Speed | Heading |
|---|---|---|---|---|---|
| 2026-04-26 07:50 | 39.51577 | 116.41882 | 91 ft | 0 kts | 262° |
| 2026-04-26 08:11 | 39.51580 | 116.41901 | 91 ft | 2 kts | 250° |
| 2026-04-26 08:11 | 39.51586 | 116.41918 | 91 ft | 2 kts | 239° |
| 2026-04-26 08:11 | 39.51595 | 116.41934 | 91 ft | 2 kts | 228° |
| 2026-04-26 08:11 | 39.51606 | 116.41948 | 91 ft | 2 kts | 217° |
| 2026-04-26 08:12 | 39.51618 | 116.41958 | 91 ft | 2 kts | 205° |
| 2026-04-26 08:12 | 39.51632 | 116.41965 | 91 ft | 2 kts | 194° |
| 2026-04-26 08:12 | 39.51647 | 116.41969 | 91 ft | 2 kts | 183° |
| 2026-04-26 08:12 | 39.51659 | 116.41968 | 91 ft | 0 kts | 173° |
| 2026-04-26 08:13 | 39.51665 | 116.41967 | 91 ft | 0 kts | 171° |
| 2026-04-26 08:13 | 39.51670 | 116.41966 | 91 ft | 0 kts | 171° |
| 2026-04-26 08:13 | 39.51671 | 116.41966 | 91 ft | 0 kts | 171° |
| 2026-04-26 08:16 | 39.51642 | 116.41971 | 91 ft | 5 kts | 171° |
| 2026-04-26 08:16 | 39.51604 | 116.41997 | 91 ft | 7 kts | 125° |
| 2026-04-26 08:16 | 39.51613 | 116.42069 | 91 ft | 10 kts | 38° |
| 2026-04-26 08:16 | 39.51698 | 116.42072 | 91 ft | 13 kts | 351° |
| 2026-04-26 08:17 | 39.51780 | 116.42107 | 91 ft | 10 kts | 43° |
| 2026-04-26 08:17 | 39.51791 | 116.42122 | 91 ft | 1 kts | 49° |
| 2026-04-26 08:17 | 39.51808 | 116.42171 | 91 ft | 11 kts | 79° |
| 2026-04-26 08:17 | 39.51820 | 116.42297 | 91 ft | 15 kts | 82° |
| 2026-04-26 08:18 | 39.51833 | 116.42438 | 91 ft | 16 kts | 82° |
| 2026-04-26 08:18 | 39.51844 | 116.42562 | 91 ft | 13 kts | 85° |
| 2026-04-26 08:18 | 39.51857 | 116.42693 | 91 ft | 15 kts | 82° |
| 2026-04-26 08:18 | 39.51872 | 116.42841 | 91 ft | 18 kts | 82° |
| 2026-04-26 08:19 | 39.51866 | 116.43013 | 91 ft | 19 kts | 102° |
| 2026-04-26 08:19 | 39.51839 | 116.43153 | 91 ft | 8 kts | 114° |
| 2026-04-26 08:19 | 39.51791 | 116.43177 | 91 ft | 8 kts | 197° |
| 2026-04-26 08:19 | 39.51769 | 116.43169 | 91 ft | 0 kts | 194° |
| 2026-04-26 08:28 | 39.51768 | 116.43169 | 91 ft | 0 kts | 194° |
| 2026-04-26 08:28 | 39.51761 | 116.43166 | 91 ft | 1 kts | 194° |
| 2026-04-26 08:29 | 39.51746 | 116.43162 | 91 ft | 3 kts | 193° |
| 2026-04-26 08:29 | 39.51714 | 116.43155 | 91 ft | 7 kts | 184° |
| 2026-04-26 08:29 | 39.51659 | 116.43195 | 91 ft | 10 kts | 116° |
| 2026-04-26 08:29 | 39.51652 | 116.43223 | 91 ft | 0 kts | 102° |
| 2026-04-26 08:30 | 39.51618 | 116.43413 | 91 ft | 59 kts | 103° |
| 2026-04-26 08:30 | 39.51461 | 116.44288 | 91 ft | 136 kts | 104° |
| 2026-04-26 08:30 | 39.51217 | 116.45681 | 337 ft | 175 kts | 104° |
| 2026-04-26 08:30 | 39.50927 | 116.47243 | 1041 ft | 186 kts | 104° |
| 2026-04-26 08:31 | 39.50611 | 116.48875 | 1865 ft | 192 kts | 103° |
| 2026-04-26 08:31 | 39.50284 | 116.50595 | 2493 ft | 207 kts | 102° |
| 2026-04-26 08:31 | 39.49956 | 116.52504 | 3105 ft | 227 kts | 101° |
| 2026-04-26 08:31 | 39.49598 | 116.54565 | 3717 ft | 246 kts | 101° |
| 2026-04-26 08:32 | 39.49204 | 116.56789 | 4344 ft | 258 kts | 101° |
| 2026-04-26 08:32 | 39.48796 | 116.59065 | 4749 ft | 262 kts | 101° |
| 2026-04-26 08:32 | 39.48375 | 116.61386 | 4884 ft | 263 kts | 101° |
| 2026-04-26 08:32 | 39.48227 | 116.63727 | 4897 ft | 261 kts | 78° |
| 2026-04-26 08:33 | 39.48888 | 116.65895 | 4907 ft | 261 kts | 59° |
| 2026-04-26 08:33 | 39.49812 | 116.67923 | 4900 ft | 260 kts | 60° |
| 2026-04-26 08:33 | 39.50726 | 116.69962 | 4899 ft | 262 kts | 60° |
| 2026-04-26 08:33 | 39.51635 | 116.71997 | 4898 ft | 262 kts | 60° |
| 2026-04-26 08:34 | 39.52548 | 116.74042 | 4903 ft | 261 kts | 60° |
| 2026-04-26 08:34 | 39.53458 | 116.76085 | 4908 ft | 261 kts | 60° |
| 2026-04-26 08:34 | 39.54364 | 116.78121 | 4903 ft | 260 kts | 60° |
| 2026-04-26 08:34 | 39.55188 | 116.80197 | 4988 ft | 260 kts | 64° |
| 2026-04-26 08:35 | 39.55989 | 116.82328 | 5417 ft | 265 kts | 63° |
| 2026-04-26 08:35 | 39.56803 | 116.84476 | 6120 ft | 270 kts | 63° |
| 2026-04-26 08:35 | 39.57627 | 116.86651 | 7001 ft | 273 kts | 62° |
| 2026-04-26 08:35 | 39.58470 | 116.88876 | 7785 ft | 280 kts | 61° |
| 2026-04-26 08:36 | 39.59332 | 116.91155 | 8547 ft | 286 kts | 61° |
| 2026-04-26 08:36 | 39.60216 | 116.93496 | 9318 ft | 292 kts | 60° |
| 2026-04-26 08:36 | 39.61116 | 116.95879 | 10064 ft | 299 kts | 60° |
| 2026-04-26 08:36 | 39.62059 | 116.98350 | 10526 ft | 315 kts | 58° |
| 2026-04-26 08:37 | 39.63416 | 117.00620 | 10842 ft | 328 kts | 38° |
| 2026-04-26 08:37 | 39.65392 | 117.02191 | 11126 ft | 340 kts | 17° |
| 2026-04-26 08:37 | 39.67750 | 117.02741 | 11528 ft | 347 kts | 356° |
| 2026-04-26 08:37 | 39.70148 | 117.02447 | 12143 ft | 351 kts | 351° |
| 2026-04-26 08:38 | 39.72613 | 117.02081 | 12785 ft | 354 kts | 351° |
| 2026-04-26 08:38 | 39.75046 | 117.01724 | 13417 ft | 357 kts | 351° |
| 2026-04-26 08:38 | 39.77552 | 117.01355 | 14041 ft | 361 kts | 351° |
| 2026-04-26 08:38 | 39.80061 | 117.00984 | 14689 ft | 363 kts | 350° |
| 2026-04-26 08:39 | 39.82576 | 117.00611 | 15310 ft | 365 kts | 351° |
| 2026-04-26 08:39 | 39.85092 | 117.00236 | 15896 ft | 368 kts | 350° |
| 2026-04-26 08:39 | 39.87669 | 116.99850 | 16475 ft | 370 kts | 350° |
| 2026-04-26 08:39 | 39.90235 | 116.99466 | 17065 ft | 372 kts | 350° |
| 2026-04-26 08:40 | 39.92823 | 116.99078 | 17615 ft | 374 kts | 351° |
| 2026-04-26 08:40 | 39.95397 | 116.98691 | 18158 ft | 376 kts | 350° |
| 2026-04-26 08:40 | 39.98008 | 116.98298 | 18702 ft | 378 kts | 350° |
| 2026-04-26 08:40 | 40.00645 | 116.97900 | 19151 ft | 382 kts | 350° |
| 2026-04-26 08:41 | 40.03289 | 116.97501 | 19614 ft | 385 kts | 350° |
| 2026-04-26 08:41 | 40.05949 | 116.97099 | 20106 ft | 387 kts | 349° |
| 2026-04-26 08:41 | 40.08660 | 116.96690 | 20544 ft | 391 kts | 350° |
| 2026-04-26 08:41 | 40.11369 | 116.96280 | 20991 ft | 394 kts | 349° |
| 2026-04-26 08:42 | 40.14114 | 116.95864 | 21415 ft | 397 kts | 349° |
| 2026-04-26 08:42 | 40.16846 | 116.95451 | 21858 ft | 399 kts | 349° |
| 2026-04-26 08:42 | 40.19603 | 116.95032 | 22278 ft | 401 kts | 349° |
| 2026-04-26 08:42 | 40.22394 | 116.94609 | 22744 ft | 403 kts | 349° |
| 2026-04-26 08:43 | 40.25177 | 116.94186 | 23134 ft | 406 kts | 349° |
| 2026-04-26 08:43 | 40.28001 | 116.93757 | 23549 ft | 408 kts | 349° |
| 2026-04-26 08:43 | 40.30815 | 116.93328 | 23935 ft | 410 kts | 348° |
| 2026-04-26 08:43 | 40.33658 | 116.92896 | 24339 ft | 412 kts | 348° |
| 2026-04-26 08:44 | 40.36544 | 116.92455 | 24746 ft | 413 kts | 348° |
| 2026-04-26 08:44 | 40.39418 | 116.92017 | 25129 ft | 415 kts | 348° |
| 2026-04-26 08:44 | 40.42300 | 116.91576 | 25450 ft | 418 kts | 348° |
| 2026-04-26 08:44 | 40.45194 | 116.91134 | 25792 ft | 420 kts | 348° |
| 2026-04-26 08:45 | 40.48076 | 116.90577 | 26142 ft | 418 kts | 343° |
| 2026-04-26 08:45 | 40.50883 | 116.89649 | 26486 ft | 417 kts | 339° |
| 2026-04-26 08:45 | 40.53661 | 116.88591 | 26818 ft | 418 kts | 339° |
| 2026-04-26 08:45 | 40.56455 | 116.87532 | 27149 ft | 419 kts | 339° |
| 2026-04-26 08:46 | 40.59265 | 116.86465 | 27455 ft | 421 kts | 339° |
| 2026-04-26 08:46 | 40.62100 | 116.85388 | 27752 ft | 423 kts | 338° |
| 2026-04-26 08:46 | 40.64966 | 116.84442 | 28061 ft | 428 kts | 344° |
| 2026-04-26 08:46 | 40.67969 | 116.84041 | 28345 ft | 437 kts | 353° |
| 2026-04-26 08:47 | 40.71043 | 116.84277 | 28584 ft | 447 kts | 2° |
| 2026-04-26 08:47 | 40.74106 | 116.85191 | 28881 ft | 457 kts | 11° |
| 2026-04-26 08:47 | 40.77077 | 116.86796 | 29057 ft | 469 kts | 21° |
| 2026-04-26 08:47 | 40.79869 | 116.89112 | 29380 ft | 478 kts | 31° |
| 2026-04-26 08:48 | 40.82335 | 116.92052 | 29745 ft | 485 kts | 41° |
| 2026-04-26 08:48 | 40.84462 | 116.95536 | 30028 ft | 491 kts | 48° |
| 2026-04-26 08:48 | 40.86515 | 116.99206 | 30363 ft | 492 kts | 48° |
| 2026-04-26 08:48 | 40.88554 | 117.02857 | 30687 ft | 491 kts | 48° |
| 2026-04-26 08:49 | 40.90572 | 117.06461 | 30989 ft | 491 kts | 47° |
| 2026-04-26 08:49 | 40.92628 | 117.10128 | 31268 ft | 491 kts | 47° |
| 2026-04-26 08:49 | 40.94650 | 117.13734 | 31590 ft | 490 kts | 47° |
| 2026-04-26 08:49 | 40.96679 | 117.17356 | 31897 ft | 489 kts | 47° |
| 2026-04-26 08:50 | 40.98689 | 117.20946 | 32160 ft | 489 kts | 47° |
| 2026-04-26 08:50 | 41.00700 | 117.24545 | 32442 ft | 489 kts | 47° |
| 2026-04-26 08:50 | 41.02736 | 117.28188 | 32679 ft | 490 kts | 47° |
| 2026-04-26 08:50 | 41.04765 | 117.31824 | 32942 ft | 490 kts | 47° |
| 2026-04-26 08:51 | 41.08794 | 117.39059 | 33493 ft | 488 kts | 47° |
| 2026-04-26 08:51 | 41.10795 | 117.42658 | 33754 ft | 488 kts | 47° |
| 2026-04-26 08:51 | 41.12830 | 117.46324 | 34039 ft | 487 kts | 47° |
| 2026-04-26 08:52 | 41.14818 | 117.49909 | 34280 ft | 487 kts | 46° |
| 2026-04-26 08:52 | 41.16824 | 117.53529 | 34509 ft | 487 kts | 46° |
| 2026-04-26 08:52 | 41.18834 | 117.57162 | 34751 ft | 486 kts | 46° |
| 2026-04-26 08:52 | 41.20811 | 117.60741 | 34950 ft | 486 kts | 46° |
| 2026-04-26 08:53 | 41.22823 | 117.64386 | 35109 ft | 486 kts | 46° |
| 2026-04-26 08:53 | 41.26824 | 117.71645 | 35139 ft | 487 kts | 47° |
| 2026-04-26 08:54 | 41.30820 | 117.78913 | 35136 ft | 487 kts | 47° |
| 2026-04-26 08:54 | 41.34808 | 117.86186 | 35125 ft | 486 kts | 47° |
| 2026-04-26 08:55 | 41.38779 | 117.93444 | 35121 ft | 486 kts | 47° |
| 2026-04-26 08:55 | 41.42788 | 118.00787 | 35247 ft | 490 kts | 47° |
| 2026-04-26 08:56 | 41.46791 | 118.08139 | 35214 ft | 489 kts | 47° |
| 2026-04-26 08:56 | 41.48114 | 118.10574 | 35108 ft | 489 kts | 47° |
| 2026-04-26 08:56 | 41.50777 | 118.15477 | 35187 ft | 489 kts | 47° |
| 2026-04-26 08:57 | 41.54752 | 118.22811 | 35227 ft | 490 kts | 47° |
| 2026-04-26 08:57 | 41.58749 | 118.30205 | 35231 ft | 489 kts | 47° |
| 2026-04-26 08:58 | 41.62700 | 118.37530 | 35223 ft | 489 kts | 47° |
| 2026-04-26 08:58 | 41.66673 | 118.44915 | 35217 ft | 488 kts | 47° |
| 2026-04-26 08:59 | 41.70607 | 118.52245 | 35198 ft | 487 kts | 47° |
| 2026-04-26 08:59 | 41.74545 | 118.59600 | 35190 ft | 487 kts | 47° |
| 2026-04-26 09:00 | 41.78478 | 118.66962 | 35187 ft | 486 kts | 48° |
| 2026-04-26 09:00 | 41.82423 | 118.74367 | 35175 ft | 486 kts | 47° |
| 2026-04-26 09:01 | 41.86330 | 118.81718 | 35179 ft | 485 kts | 47° |
| 2026-04-26 09:01 | 41.90239 | 118.89088 | 35177 ft | 485 kts | 47° |
| 2026-04-26 09:02 | 41.94122 | 118.96430 | 35179 ft | 485 kts | 47° |
| 2026-04-26 09:02 | 41.98044 | 119.03863 | 35189 ft | 485 kts | 47° |
| 2026-04-26 09:03 | 42.01918 | 119.11221 | 35190 ft | 485 kts | 47° |
| 2026-04-26 09:03 | 42.05797 | 119.18608 | 35189 ft | 485 kts | 47° |
| 2026-04-26 09:04 | 42.09695 | 119.26047 | 35179 ft | 486 kts | 47° |
| 2026-04-26 09:04 | 42.13586 | 119.33494 | 35190 ft | 487 kts | 47° |
| 2026-04-26 09:05 | 42.17488 | 119.40981 | 35193 ft | 487 kts | 47° |
| 2026-04-26 09:05 | 42.21372 | 119.48451 | 35206 ft | 487 kts | 47° |
| 2026-04-26 09:06 | 42.25266 | 119.55958 | 35196 ft | 488 kts | 48° |
| 2026-04-26 09:06 | 42.29123 | 119.63414 | 35202 ft | 488 kts | 47° |
| 2026-04-26 09:07 | 42.33005 | 119.70935 | 35196 ft | 487 kts | 49° |
| 2026-04-26 09:07 | 42.36898 | 119.78499 | 35185 ft | 487 kts | 49° |
| 2026-04-26 09:08 | 42.40854 | 119.86201 | 35170 ft | 487 kts | 49° |
| 2026-04-26 09:08 | 42.44746 | 119.93801 | 35165 ft | 487 kts | 49° |
| 2026-04-26 09:09 | 42.48614 | 120.01371 | 35168 ft | 487 kts | 49° |
| 2026-04-26 09:09 | 42.52475 | 120.08947 | 35170 ft | 487 kts | 49° |
| 2026-04-26 09:10 | 42.56330 | 120.16532 | 35172 ft | 487 kts | 49° |
| 2026-04-26 09:10 | 42.60168 | 120.24100 | 35177 ft | 487 kts | 49° |
| 2026-04-26 09:11 | 42.63984 | 120.31646 | 35179 ft | 487 kts | 49° |
| 2026-04-26 09:11 | 42.67823 | 120.39256 | 35176 ft | 487 kts | 49° |
| 2026-04-26 09:12 | 42.71627 | 120.46815 | 35186 ft | 487 kts | 49° |
| 2026-04-26 09:12 | 42.75440 | 120.54414 | 35176 ft | 486 kts | 49° |
| 2026-04-26 09:13 | 42.79237 | 120.61997 | 35176 ft | 486 kts | 49° |
| 2026-04-26 09:13 | 42.83037 | 120.69608 | 35173 ft | 485 kts | 50° |
| 2026-04-26 09:14 | 42.86818 | 120.77198 | 35167 ft | 484 kts | 50° |
| 2026-04-26 09:14 | 42.90572 | 120.84755 | 35148 ft | 483 kts | 50° |
| 2026-04-26 09:15 | 42.94342 | 120.92361 | 35167 ft | 483 kts | 50° |
| 2026-04-26 09:15 | 42.98086 | 120.99934 | 35148 ft | 482 kts | 50° |
| 2026-04-26 09:16 | 43.01834 | 121.07536 | 35162 ft | 482 kts | 50° |
| 2026-04-26 09:16 | 43.05566 | 121.15126 | 35158 ft | 482 kts | 50° |
| 2026-04-26 09:17 | 43.09292 | 121.22720 | 35161 ft | 483 kts | 50° |
| 2026-04-26 09:17 | 43.13039 | 121.30380 | 35159 ft | 483 kts | 50° |
| 2026-04-26 09:18 | 43.16770 | 121.38026 | 35172 ft | 484 kts | 50° |
| 2026-04-26 09:18 | 43.20495 | 121.45677 | 35174 ft | 484 kts | 50° |
| 2026-04-26 09:19 | 43.24209 | 121.53327 | 35178 ft | 484 kts | 50° |
| 2026-04-26 09:19 | 43.27936 | 121.61026 | 35180 ft | 484 kts | 50° |
| 2026-04-26 09:20 | 43.31666 | 121.68748 | 35169 ft | 484 kts | 51° |
| 2026-04-26 09:20 | 43.35365 | 121.76429 | 35171 ft | 483 kts | 51° |
| 2026-04-26 09:21 | 43.39069 | 121.84138 | 35162 ft | 483 kts | 51° |
| 2026-04-26 09:21 | 43.42753 | 121.91826 | 35160 ft | 483 kts | 51° |
| 2026-04-26 09:22 | 43.46457 | 121.99577 | 35161 ft | 483 kts | 51° |
| 2026-04-26 09:22 | 43.50127 | 122.07277 | 35155 ft | 483 kts | 51° |
| 2026-04-26 09:23 | 43.53794 | 122.15047 | 35170 ft | 485 kts | 54° |
| 2026-04-26 09:23 | 43.55282 | 122.19253 | 35169 ft | 493 kts | 65° |
| 2026-04-26 09:23 | 43.56189 | 122.23842 | 35178 ft | 500 kts | 78° |
| 2026-04-26 09:24 | 43.56822 | 122.33374 | 35192 ft | 502 kts | 83° |
| 2026-04-26 09:24 | 43.57350 | 122.42956 | 35193 ft | 500 kts | 83° |
| 2026-04-26 09:25 | 43.57885 | 122.52525 | 35178 ft | 499 kts | 83° |
| 2026-04-26 09:25 | 43.58410 | 122.62025 | 35150 ft | 498 kts | 82° |
| 2026-04-26 09:26 | 43.58930 | 122.71535 | 35146 ft | 497 kts | 83° |
| 2026-04-26 09:26 | 43.59442 | 122.81050 | 35149 ft | 496 kts | 83° |
| 2026-04-26 09:27 | 43.59941 | 122.90485 | 35123 ft | 496 kts | 83° |
| 2026-04-26 09:27 | 43.60435 | 122.99944 | 35144 ft | 495 kts | 83° |
| 2026-04-26 09:28 | 43.60923 | 123.09468 | 35147 ft | 497 kts | 83° |
| 2026-04-26 09:28 | 43.61401 | 123.18947 | 35142 ft | 497 kts | 83° |
| 2026-04-26 09:29 | 43.61987 | 123.28440 | 35151 ft | 496 kts | 82° |
| 2026-04-26 09:29 | 43.62613 | 123.37937 | 35149 ft | 496 kts | 82° |
| 2026-04-26 09:30 | 43.63218 | 123.47402 | 35141 ft | 495 kts | 82° |
| 2026-04-26 09:30 | 43.63810 | 123.56824 | 35147 ft | 495 kts | 82° |
| 2026-04-26 09:31 | 43.64392 | 123.66236 | 35129 ft | 495 kts | 83° |
| 2026-04-26 09:31 | 43.64683 | 123.70988 | 35028 ft | 495 kts | 83° |
| 2026-04-26 09:31 | 43.64972 | 123.75739 | 34823 ft | 495 kts | 83° |
| 2026-04-26 09:31 | 43.65255 | 123.80432 | 34595 ft | 494 kts | 83° |
| 2026-04-26 09:32 | 43.65538 | 123.85148 | 34349 ft | 494 kts | 83° |
| 2026-04-26 09:32 | 43.65821 | 123.89906 | 34124 ft | 495 kts | 83° |
| 2026-04-26 09:32 | 43.66100 | 123.94627 | 33887 ft | 495 kts | 83° |
| 2026-04-26 09:32 | 43.66378 | 123.99365 | 33640 ft | 495 kts | 83° |
| 2026-04-26 09:33 | 43.66652 | 124.04054 | 33392 ft | 495 kts | 83° |
| 2026-04-26 09:33 | 43.66928 | 124.08826 | 33156 ft | 495 kts | 83° |
| 2026-04-26 09:33 | 43.67198 | 124.13525 | 32925 ft | 494 kts | 83° |
| 2026-04-26 09:33 | 43.67466 | 124.18235 | 32684 ft | 493 kts | 83° |
| 2026-04-26 09:34 | 43.67734 | 124.22987 | 32422 ft | 493 kts | 84° |
| 2026-04-26 09:34 | 43.67746 | 124.27698 | 32176 ft | 496 kts | 94° |
| 2026-04-26 09:34 | 43.67123 | 124.32381 | 31956 ft | 497 kts | 106° |
| 2026-04-26 09:34 | 43.65900 | 124.36867 | 31737 ft | 496 kts | 114° |
| 2026-04-26 09:35 | 43.64525 | 124.41230 | 31494 ft | 495 kts | 114° |
| 2026-04-26 09:35 | 43.63258 | 124.45602 | 31265 ft | 496 kts | 107° |
| 2026-04-26 09:35 | 43.62503 | 124.50301 | 31021 ft | 497 kts | 95° |
| 2026-04-26 09:35 | 43.62397 | 124.55039 | 30576 ft | 490 kts | 84° |
| 2026-04-26 09:36 | 43.62666 | 124.59718 | 29929 ft | 489 kts | 83° |
| 2026-04-26 09:36 | 43.62954 | 124.64335 | 29114 ft | 492 kts | 83° |
| 2026-04-26 09:36 | 43.63243 | 124.69064 | 28248 ft | 495 kts | 83° |
| 2026-04-26 09:36 | 43.63530 | 124.73846 | 27346 ft | 498 kts | 84° |
| 2026-04-26 09:37 | 43.63810 | 124.78546 | 26607 ft | 497 kts | 84° |
| 2026-04-26 09:37 | 43.64092 | 124.83308 | 25911 ft | 495 kts | 83° |
| 2026-04-26 09:37 | 43.64370 | 124.88053 | 25220 ft | 492 kts | 83° |
| 2026-04-26 09:37 | 43.64643 | 124.92737 | 24559 ft | 488 kts | 83° |
| 2026-04-26 09:38 | 43.64901 | 124.97336 | 23903 ft | 485 kts | 84° |
| 2026-04-26 09:38 | 43.65159 | 125.01983 | 23223 ft | 481 kts | 83° |
| 2026-04-26 09:38 | 43.65418 | 125.06551 | 22556 ft | 478 kts | 83° |
| 2026-04-26 09:38 | 43.65671 | 125.11045 | 21890 ft | 474 kts | 83° |
| 2026-04-26 09:39 | 43.65924 | 125.15558 | 21219 ft | 470 kts | 83° |
| 2026-04-26 09:39 | 43.66176 | 125.20075 | 20548 ft | 467 kts | 84° |
| 2026-04-26 09:39 | 43.66420 | 125.24503 | 19873 ft | 463 kts | 84° |
| 2026-04-26 09:39 | 43.66663 | 125.28932 | 19193 ft | 460 kts | 84° |
| 2026-04-26 09:40 | 43.66924 | 125.33321 | 18508 ft | 456 kts | 81° |
| 2026-04-26 09:40 | 43.67688 | 125.37495 | 17826 ft | 447 kts | 63° |
| 2026-04-26 09:40 | 43.69284 | 125.41038 | 17158 ft | 434 kts | 47° |
| 2026-04-26 09:40 | 43.71231 | 125.44187 | 16499 ft | 429 kts | 45° |
| 2026-04-26 09:41 | 43.73172 | 125.47269 | 15862 ft | 425 kts | 45° |
| 2026-04-26 09:41 | 43.75078 | 125.50311 | 15233 ft | 412 kts | 45° |
| 2026-04-26 09:41 | 43.76922 | 125.53260 | 14618 ft | 400 kts | 45° |
| 2026-04-26 09:41 | 43.78716 | 125.56131 | 14012 ft | 388 kts | 45° |
| 2026-04-26 09:42 | 43.80433 | 125.58879 | 13439 ft | 378 kts | 45° |
| 2026-04-26 09:42 | 43.82091 | 125.61623 | 12983 ft | 366 kts | 52° |
| 2026-04-26 09:42 | 43.83054 | 125.64859 | 12706 ft | 362 kts | 79° |
| 2026-04-26 09:42 | 43.82944 | 125.68270 | 12470 ft | 354 kts | 103° |
| 2026-04-26 09:43 | 43.82011 | 125.71390 | 12238 ft | 343 kts | 124° |
| 2026-04-26 09:43 | 43.80492 | 125.73790 | 12022 ft | 331 kts | 143° |
| 2026-04-26 09:43 | 43.78556 | 125.75369 | 11808 ft | 317 kts | 162° |
| 2026-04-26 09:43 | 43.76453 | 125.76023 | 11599 ft | 303 kts | 180° |
| 2026-04-26 09:44 | 43.74386 | 125.75794 | 11396 ft | 289 kts | 198° |
| 2026-04-26 09:44 | 43.72592 | 125.74783 | 11179 ft | 277 kts | 219° |
| 2026-04-26 09:44 | 43.71303 | 125.72854 | 10930 ft | 269 kts | 245° |
| 2026-04-26 09:44 | 43.70790 | 125.70437 | 10688 ft | 263 kts | 270° |
| 2026-04-26 09:45 | 43.71091 | 125.67989 | 10444 ft | 260 kts | 295° |
| 2026-04-26 09:45 | 43.72141 | 125.65969 | 10201 ft | 260 kts | 320° |
| 2026-04-26 09:45 | 43.73689 | 125.64737 | 9977 ft | 261 kts | 335° |
| 2026-04-26 09:45 | 43.75362 | 125.63708 | 9806 ft | 260 kts | 335° |
| 2026-04-26 09:46 | 43.77019 | 125.62681 | 9677 ft | 260 kts | 335° |
| 2026-04-26 09:46 | 43.78654 | 125.61668 | 9555 ft | 260 kts | 335° |
| 2026-04-26 09:46 | 43.80325 | 125.60629 | 9431 ft | 259 kts | 335° |
| 2026-04-26 09:46 | 43.81973 | 125.59676 | 9302 ft | 265 kts | 343° |
| 2026-04-26 09:47 | 43.83847 | 125.59364 | 9162 ft | 274 kts | 1° |
| 2026-04-26 09:47 | 43.85755 | 125.59827 | 9038 ft | 278 kts | 17° |
| 2026-04-26 09:47 | 43.87485 | 125.61030 | 8917 ft | 281 kts | 33° |
| 2026-04-26 09:47 | 43.88920 | 125.62925 | 8791 ft | 284 kts | 51° |
| 2026-04-26 09:48 | 43.89825 | 125.65362 | 8666 ft | 288 kts | 72° |
| 2026-04-26 09:48 | 43.90219 | 125.68069 | 8551 ft | 289 kts | 78° |
| 2026-04-26 09:48 | 43.90580 | 125.70807 | 8430 ft | 288 kts | 78° |
| 2026-04-26 09:48 | 43.90945 | 125.73537 | 8304 ft | 288 kts | 77° |
| 2026-04-26 09:49 | 43.91479 | 125.76197 | 8167 ft | 285 kts | 62° |
| 2026-04-26 09:49 | 43.92596 | 125.78414 | 8054 ft | 281 kts | 46° |
| 2026-04-26 09:49 | 43.93872 | 125.80441 | 7934 ft | 281 kts | 47° |
| 2026-04-26 09:49 | 43.95153 | 125.82505 | 7806 ft | 280 kts | 47° |
| 2026-04-26 09:50 | 43.96435 | 125.84573 | 7682 ft | 280 kts | 47° |
| 2026-04-26 09:50 | 43.97712 | 125.86638 | 7561 ft | 279 kts | 47° |
| 2026-04-26 09:50 | 43.98959 | 125.88657 | 7437 ft | 279 kts | 47° |
| 2026-04-26 09:50 | 44.00222 | 125.90702 | 7318 ft | 272 kts | 47° |
| 2026-04-26 09:51 | 44.01438 | 125.92677 | 7212 ft | 262 kts | 47° |
| 2026-04-26 09:51 | 44.02615 | 125.94589 | 7104 ft | 253 kts | 47° |
| 2026-04-26 09:51 | 44.03741 | 125.96417 | 6993 ft | 244 kts | 47° |
| 2026-04-26 09:51 | 44.04829 | 125.98185 | 6880 ft | 236 kts | 46° |
| 2026-04-26 09:52 | 44.05890 | 125.99908 | 6765 ft | 235 kts | 47° |
| 2026-04-26 09:52 | 44.08017 | 126.03359 | 6514 ft | 233 kts | 47° |
| 2026-04-26 09:52 | 44.09063 | 126.05061 | 6390 ft | 232 kts | 46° |
| 2026-04-26 09:53 | 44.10125 | 126.06787 | 6265 ft | 232 kts | 46° |
| 2026-04-26 09:53 | 44.11173 | 126.08494 | 6141 ft | 231 kts | 46° |
| 2026-04-26 09:53 | 44.12257 | 126.10159 | 6017 ft | 229 kts | 38° |
| 2026-04-26 09:53 | 44.13567 | 126.11386 | 5899 ft | 225 kts | 22° |
| 2026-04-26 09:54 | 44.15041 | 126.12079 | 5779 ft | 222 kts | 7° |
| 2026-04-26 09:54 | 44.16569 | 126.12231 | 5656 ft | 219 kts | 353° |
| 2026-04-26 09:54 | 44.18064 | 126.11852 | 5536 ft | 216 kts | 340° |
| 2026-04-26 09:54 | 44.19425 | 126.10988 | 5365 ft | 215 kts | 327° |
| 2026-04-26 09:55 | 44.20591 | 126.09722 | 5123 ft | 212 kts | 318° |
| 2026-04-26 09:55 | 44.21613 | 126.08276 | 4846 ft | 211 kts | 298° |
| 2026-04-26 09:55 | 44.21860 | 126.06290 | 4625 ft | 209 kts | 263° |
| 2026-04-26 09:55 | 44.21495 | 126.04368 | 4491 ft | 204 kts | 249° |
| 2026-04-26 09:56 | 44.20802 | 126.02711 | 4410 ft | 190 kts | 238° |
| 2026-04-26 09:56 | 44.20015 | 126.01322 | 4309 ft | 171 kts | 234° |
| 2026-04-26 09:56 | 44.19287 | 126.00140 | 4103 ft | 152 kts | 234° |
| 2026-04-26 09:56 | 44.18623 | 125.99059 | 3789 ft | 145 kts | 234° |
| 2026-04-26 09:57 | 44.17964 | 125.98003 | 3421 ft | 142 kts | 235° |
| 2026-04-26 09:57 | 44.17323 | 125.96972 | 3221 ft | 140 kts | 235° |
| 2026-04-26 09:57 | 44.16677 | 125.95932 | 3207 ft | 143 kts | 235° |
| 2026-04-26 09:57 | 44.16025 | 125.94889 | 3201 ft | 142 kts | 234° |
| 2026-04-26 09:58 | 44.15375 | 125.93848 | 3201 ft | 142 kts | 235° |
| 2026-04-26 09:58 | 44.14725 | 125.92802 | 3201 ft | 142 kts | 235° |
| 2026-04-26 09:58 | 44.14072 | 125.91754 | 3200 ft | 142 kts | 235° |
| 2026-04-26 09:58 | 44.13422 | 125.90707 | 3201 ft | 142 kts | 234° |
| 2026-04-26 09:59 | 44.12773 | 125.89670 | 3201 ft | 142 kts | 235° |
| 2026-04-26 09:59 | 44.12345 | 125.88979 | 3202 ft | 142 kts | 235° |
| 2026-04-26 09:59 | 44.11478 | 125.87589 | 3201 ft | 141 kts | 235° |
| 2026-04-26 09:59 | 44.10836 | 125.86552 | 3201 ft | 141 kts | 235° |
| 2026-04-26 10:00 | 44.10189 | 125.85516 | 3202 ft | 141 kts | 235° |
| 2026-04-26 10:00 | 44.09555 | 125.84490 | 3203 ft | 142 kts | 234° |
| 2026-04-26 10:00 | 44.08902 | 125.83444 | 3130 ft | 144 kts | 234° |
| 2026-04-26 10:00 | 44.08243 | 125.82383 | 2955 ft | 142 kts | 234° |
| 2026-04-26 10:01 | 44.07596 | 125.81345 | 2771 ft | 142 kts | 235° |
| 2026-04-26 10:01 | 44.06949 | 125.80300 | 2572 ft | 141 kts | 234° |
| 2026-04-26 10:01 | 44.06312 | 125.79278 | 2381 ft | 141 kts | 235° |
| 2026-04-26 10:01 | 44.05667 | 125.78234 | 2178 ft | 140 kts | 234° |
| 2026-04-26 10:02 | 44.05032 | 125.77214 | 2013 ft | 141 kts | 234° |
| 2026-04-26 10:02 | 44.04387 | 125.76183 | 1837 ft | 141 kts | 234° |
| 2026-04-26 10:02 | 44.03752 | 125.75154 | 1634 ft | 138 kts | 234° |
| 2026-04-26 10:02 | 44.03111 | 125.74124 | 1449 ft | 141 kts | 234° |
| 2026-04-26 10:03 | 44.02477 | 125.73100 | 1268 ft | 139 kts | 231° |
| 2026-04-26 10:03 | 44.01845 | 125.72083 | 1084 ft | 138 kts | 232° |
| 2026-04-26 10:03 | 44.01218 | 125.71077 | 916 ft | 139 kts | 232° |
| 2026-04-26 10:03 | 44.00585 | 125.70058 | 750 ft | 138 kts | 231° |
| 2026-04-26 10:04 | 44.00001 | 125.69112 | 715 ft | 110 kts | 227° |
| 2026-04-26 10:04 | 43.99636 | 125.68528 | 715 ft | 54 kts | 230° |
| 2026-04-26 10:04 | 43.99445 | 125.68218 | 714 ft | 34 kts | 229° |
| 2026-04-26 10:04 | 43.99284 | 125.68036 | 714 ft | 25 kts | 208° |
| 2026-04-26 10:05 | 43.99146 | 125.67958 | 714 ft | 17 kts | 201° |
| 2026-04-26 10:05 | 43.99088 | 125.68004 | 714 ft | 10 kts | 69° |
| 2026-04-26 10:05 | 43.99126 | 125.68066 | 714 ft | 8 kts | 49° |
| 2026-04-26 10:05 | 43.99166 | 125.68130 | 714 ft | 9 kts | 50° |
| 2026-04-26 10:06 | 43.99223 | 125.68222 | 714 ft | 14 kts | 50° |
| 2026-04-26 10:06 | 43.99290 | 125.68329 | 714 ft | 15 kts | 49° |
| 2026-04-26 10:06 | 43.99368 | 125.68456 | 714 ft | 18 kts | 50° |
| 2026-04-26 10:06 | 43.99464 | 125.68612 | 714 ft | 22 kts | 49° |
| 2026-04-26 10:07 | 43.99569 | 125.68780 | 714 ft | 23 kts | 50° |
| 2026-04-26 10:07 | 43.99671 | 125.68947 | 714 ft | 23 kts | 49° |
| 2026-04-26 10:07 | 43.99780 | 125.69120 | 714 ft | 24 kts | 50° |
| 2026-04-26 10:07 | 43.99894 | 125.69305 | 714 ft | 26 kts | 49° |
| 2026-04-26 10:08 | 43.99998 | 125.69472 | 714 ft | 22 kts | 50° |
| 2026-04-26 10:08 | 44.00080 | 125.69606 | 714 ft | 12 kts | 49° |
| 2026-04-26 10:08 | 44.00113 | 125.69702 | 714 ft | 10 kts | 112° |
| 2026-04-26 10:08 | 44.00065 | 125.69764 | 714 ft | 8 kts | 140° |
| 2026-04-26 10:09 | 44.00028 | 125.69808 | 714 ft | 6 kts | 140° |
| 2026-04-26 10:09 | 44.00004 | 125.69836 | 714 ft | 7 kts | 140° |
| 2026-04-26 10:09 | 43.99942 | 125.69910 | 714 ft | 8 kts | 139° |
| 2026-04-26 10:09 | 43.99899 | 125.69960 | 714 ft | 7 kts | 140° |
| 2026-04-26 10:10 | 43.99863 | 125.70003 | 714 ft | 4 kts | 140° |
| 2026-04-26 10:10 | 43.99839 | 125.70030 | 714 ft | 4 kts | 140° |
| 2026-04-26 10:10 | 43.99811 | 125.70064 | 714 ft | 5 kts | 140° |
| 2026-04-26 10:10 | 43.99763 | 125.70087 | 714 ft | 9 kts | 201° |
| 2026-04-26 10:11 | 43.99699 | 125.70008 | 714 ft | 13 kts | 211° |
| 2026-04-26 10:11 | 43.99630 | 125.69966 | 714 ft | 9 kts | 187° |
| 2026-04-26 10:11 | 43.99586 | 125.69974 | 714 ft | 3 kts | 179° |
| 2026-04-26 10:11 | 43.99553 | 125.69950 | 714 ft | 6 kts | 227° |
| 2026-04-26 10:12 | 43.99532 | 125.69917 | 714 ft | 2 kts | 229° |
| 2026-04-26 10:12 | 43.99517 | 125.69893 | 714 ft | 3 kts | 230° |
| 2026-04-26 10:12 | 43.99514 | 125.69888 | 714 ft | 0 kts | 230° |